Latest Weather Observations for Cummins Airport

IDS60801

Issued at 10:02 am CDT Friday 27 March 2015 (issued every 30 minutes, with the page automatically refreshed every 10 minutes)

About weather observations | Map of weather stations | Latest weather observations for SA | Other Formats
Station Details ID: 018217 Name: CUMMINS AERO Lat: -34.25 Lon: 135.71 Height: 60.11 m
Data from the previous 72 hours. | See also: Recent months at Cummins Airport
Date/Time
CDT
Temp
°C
App
Temp
°C
Dew
Point
Rel
Hum
%
Delta-T
°C
Wind Press
QNH
hPa
Press
MSL
hPa
Rain
since 9 am
mm
Dir
 
Spd
km/h
Gust
km/h
Spd
kts
Gust
kts
27/10:00am 16.4 14.3 8.1 58 4.2 ESE 9 15 5 8 1030.4 1030.2 0.0
27/09:30am 14.6 12.2 8.8 68 2.9 S 11 13 6 7 1030.5 1030.3 0.0
27/09:00am 14.1 11.2 8.3 68 2.9 S 13 15 7 8 1030.4 1030.2 0.0
27/08:30am 13.8 11.3 8.2 69 2.8 S 11 15 6 8 1030.2 1030.0 0.0
27/08:00am 13.2 12.0 7.9 70 2.6 SSW 4 7 2 4 1030.0 1029.8 0.0
27/07:30am 13.1 12.2 7.8 70 2.6 SW 2 7 1 4 1029.7 1029.5 0.0
27/07:00am 13.1 12.6 7.8 70 2.6 CALM 0 0 0 0 1029.4 1029.2 0.0
27/06:30am 13.0 12.5 7.7 70 2.6 CALM 0 9 0 5 1029.3 1029.1 0.0
27/06:00am 13.1 11.9 8.0 71 2.5 S 4 6 2 3 1028.9 1028.7 0.0
27/05:30am 13.1 12.6 7.8 70 2.6 CALM 0 0 0 0 1028.8 1028.6 0.0
27/05:00am 13.3 12.1 8.0 70 2.6 W 4 7 2 4 1028.9 1028.7 0.0
27/04:30am 13.5 13.0 7.9 69 2.8 CALM 0 0 0 0 1028.9 1028.7 0.0
27/04:00am 13.6 11.8 7.8 68 2.9 WSW 7 9 4 5 1029.0 1028.8 0.0
27/03:30am 13.8 11.6 7.8 67 2.9 WSW 9 9 5 5 1029.1 1028.9 0.0
27/03:00am 13.3 11.3 7.1 66 3.0 WSW 7 9 4 5 1029.4 1029.2 0.0
27/02:30am 13.1 12.0 6.7 65 3.1 WSW 2 7 1 4 1029.6 1029.4 0.0
27/02:00am 13.0 12.2 6.4 64 3.2 CALM 0 0 0 0 1029.6 1029.4 0.0
27/01:30am 13.1 12.3 6.5 64 3.1 CALM 0 0 0 0 1029.6 1029.4 0.0
27/01:00am 13.1 12.2 6.2 63 3.3 CALM 0 0 0 0 1029.8 1029.6 0.0
27/12:30am 13.3 12.4 6.2 62 3.4 CALM 0 0 0 0 1029.7 1029.5 0.0
27/12:00am 13.5 12.6 6.1 61 3.5 CALM 0 0 0 0 1029.8 1029.6 0.0
 
Date/Time
CDT
Temp
°C
App
Temp
°C
Dew
Point
Rel
Hum
%
Delta-T
°C
Wind Press
QNH
hPa
Press
MSL
hPa
Rain
since 9 am
mm
Dir
 
Spd
km/h
Gust
km/h
Spd
kts
Gust
kts
26/11:30pm 13.6 11.0 6.0 60 3.6 WSW 9 11 5 6 1030.0 1029.8 0.0
26/11:00pm 12.8 10.5 5.5 61 3.4 SSW 7 9 4 5 1029.9 1029.7 0.0
26/10:30pm 14.2 11.6 6.1 58 3.9 S 9 11 5 6 1030.1 1029.9 0.0
26/10:00pm 14.2 11.3 6.3 59 3.8 S 11 17 6 9 1030.2 1030.0 0.0
26/09:30pm 13.5 12.6 5.9 60 3.6 CALM 0 0 0 0 1030.2 1030.0 0.0
26/09:00pm 14.1 11.1 6.0 58 3.8 SSW 11 13 6 7 1029.9 1029.7 0.0
26/08:30pm 14.7 10.9 6.0 56 4.1 SSW 15 19 8 10 1029.7 1029.5 0.0
26/08:00pm 14.8 9.0 6.4 57 4.1 SSW 26 33 14 18 1029.5 1029.3 0.0
26/07:30pm 15.3 10.5 4.9 50 4.9 SSW 19 24 10 13 1029.3 1029.1 0.0
26/07:00pm 15.7 11.0 5.0 49 5.0 SSW 19 28 10 15 1029.2 1029.0 0.0
26/06:30pm 15.9 9.8 4.9 48 5.2 SSW 26 32 14 17 1028.9 1028.7 0.0
26/06:00pm 16.2 10.1 4.9 47 5.3 SSW 26 35 14 19 1028.7 1028.5 0.0
26/05:30pm 16.6 11.2 4.6 45 5.6 SSW 22 28 12 15 1028.5 1028.3 0.0
26/05:00pm 16.6 11.2 4.6 45 5.7 SSW 22 32 12 17 1028.5 1028.3 0.0
26/04:30pm 16.8 11.1 5.1 46 5.6 SSW 24 33 13 18 1028.4 1028.2 0.0
26/04:00pm 17.1 10.5 4.1 42 6.1 SSW 28 37 15 20 1028.3 1028.1 0.0
26/03:30pm 17.8 11.9 3.7 39 6.6 SW 24 30 13 16 1028.3 1028.1 0.0
26/03:00pm 17.5 10.9 2.3 36 6.9 SW 26 35 14 19 1028.3 1028.1 0.0
26/02:30pm 18.2 10.8 2.1 34 7.3 SW 30 43 16 23 1028.2 1028.0 0.0
26/02:00pm 19.0 12.4 2.0 32 7.8 SW 26 37 14 20 1028.4 1028.2 0.0
26/01:30pm 18.4 12.5 1.4 32 7.6 SW 22 35 12 19 1028.7 1028.5 0.0
26/01:00pm 17.0 10.7 1.4 35 6.9 SSW 24 39 13 21 1028.8 1028.6 0.0
26/12:30pm 17.0 11.4 3.3 40 6.3 SSW 22 37 12 20 1029.2 1029.0 0.0
26/12:00pm 17.8 10.3 3.7 39 6.6 SSW 32 44 17 24 1029.0 1028.8 0.0
26/11:30am 16.9 10.1 2.9 39 6.4 SSW 28 44 15 24 1029.0 1028.8 0.0
26/11:00am 16.7 11.3 4.7 45 5.7 SSW 22 33 12 18 1028.9 1028.7 0.0
26/10:30am 15.2 10.8 6.5 56 4.2 SSW 19 24 10 13 1028.8 1028.6 0.0
26/10:00am 14.5 11.3 6.8 60 3.8 SW 13 19 7 10 1028.5 1028.3 0.0
26/09:30am 13.3 11.3 7.3 67 2.9 NW 7 13 4 7 1028.2 1028.0 0.0
26/09:00am 10.5 10.0 7.9 84 1.3 CALM 0 0 0 0 1027.8 1027.7 0.8
26/08:30am 8.6 7.6 7.2 91 0.7 NNE 2 6 1 3 1027.5 1027.4 0.8
26/08:00am 7.2 5.0 6.1 93 0.5 NNE 7 11 4 6 1027.2 1027.1 0.8
26/07:30am 6.6 4.2 5.4 92 0.5 NE 7 9 4 5 1026.9 1026.8 0.8
26/07:00am 7.1 4.9 6.0 93 0.5 NNE 7 9 4 5 1026.5 1026.4 0.8
26/06:30am 5.9 2.7 5.2 95 0.3 NNE 11 13 6 7 1026.1 1026.0 0.8
26/06:00am 4.6 1.6 3.9 95 0.3 ENE 9 9 5 5 1025.9 1025.8 0.8
26/05:30am 3.7 0.5 2.8 94 0.4 NNE 9 9 5 5 1025.4 1025.3 0.8
26/05:00am 4.1 2.6 3.1 93 0.4 CALM 0 0 0 0 1025.3 1025.2 0.8
26/04:30am 4.4 2.9 3.2 92 0.5 CALM 0 0 0 0 1025.2 1025.1 0.8
26/04:00am 5.7 4.5 4.5 92 0.5 CALM 0 0 0 0 1025.1 1025.0 0.8
26/03:30am 5.9 3.4 4.7 92 0.5 NNE 7 11 4 6 1025.0 1024.9 0.8
26/03:00am 5.2 2.5 3.7 90 0.6 NNE 7 9 4 5 1025.1 1025.0 0.8
26/02:30am 6.3 3.8 4.5 88 0.8 NNE 7 7 4 4 1025.1 1025.0 0.8
26/02:00am 8.6 6.6 6.4 86 1.0 WSW 6 9 3 5 1025.1 1025.0 0.8
26/01:30am 9.6 8.4 6.5 81 1.4 SSW 2 6 1 3 1025.0 1024.9 0.8
26/01:00am 10.2 8.1 6.7 79 1.6 SSW 7 9 4 5 1025.0 1024.9 0.8
26/12:30am 8.5 6.7 5.6 82 1.3 W 4 17 2 9 1025.3 1025.2 0.8
26/12:00am 7.5 5.0 3.9 78 1.5 NNE 6 9 3 5 1025.0 1024.9 0.8
 
Date/Time
CDT
Temp
°C
App
Temp
°C
Dew
Point
Rel
Hum
%
Delta-T
°C
Wind Press
QNH
hPa
Press
MSL
hPa
Rain
since 9 am
mm
Dir
 
Spd
km/h
Gust
km/h
Spd
kts
Gust
kts
25/11:30pm 9.4 6.5 4.6 72 2.1 SE 9 11 5 6 1024.9 1024.8 0.8
25/11:00pm 10.1 6.9 5.3 72 2.2 SSW 11 13 6 7 1024.7 1024.6 0.8
25/10:30pm 9.4 6.5 4.6 72 2.1 S 9 13 5 7 1024.5 1024.4 0.8
25/10:00pm 9.9 6.6 4.3 68 2.5 SW 11 15 6 8 1024.2 1024.1 0.8
25/09:30pm 9.9 6.6 4.3 68 2.5 SW 11 15 6 8 1023.9 1023.8 0.8
25/09:00pm 10.6 7.2 4.1 64 2.9 SW 11 13 6 7 1023.4 1023.3 0.8
25/08:30pm 12.1 7.6 4.1 58 3.6 SW 17 20 9 11 1022.9 1022.8 0.8
25/08:00pm 13.0 8.1 5.2 59 3.6 SW 20 26 11 14 1022.5 1022.4 0.8
25/07:30pm 13.6 6.9 3.7 51 4.5 SW 28 37 15 20 1022.0 1021.9 0.8
25/07:00pm 14.8 7.1 5.3 53 4.5 SW 35 44 19 24 1021.5 1021.4 0.8
25/06:30pm 15.2 8.0 6.0 54 4.4 SW 33 46 18 25 1021.1 1021.0 0.8
25/06:12pm 15.2 7.5 5.4 52 4.7 SW 35 54 19 29 1020.9 1020.7 0.8
25/06:00pm 15.2 7.5 7.0 58 4.0 SW 37 50 20 27 1020.9 1020.7 0.8
25/05:30pm 15.1 8.0 8.1 63 3.5 SW 35 56 19 30 1020.4 1020.2 0.8
25/05:29pm 15.1 8.4 8.1 63 3.5 SW 33 52 18 28 1020.4 1020.2 0.8
25/05:00pm 14.8 7.7 11.0 78 2.0 SW 39 56 21 30 1020.2 1020.0 0.8
25/04:42pm 14.8 10.1 13.2 90 0.9 SW 30 48 16 26 1020.0 1019.8 0.8
25/04:30pm 14.5 8.7 12.7 89 1.0 SW 35 46 19 25 1019.9 1019.7 0.8
25/04:00pm 14.4 7.9 12.8 90 0.9 SW 39 56 21 30 1019.4 1019.2 0.8
25/03:43pm 14.7 7.4 13.4 92 0.7 W 44 70 24 38 1018.9 1018.7 0.8
25/03:41pm 14.7 7.1 13.6 93 0.6 W 46 70 25 38 1018.7 1018.5 0.8
25/03:30pm 17.4 11.5 12.3 72 2.8 WNW 35 59 19 32 1018.8 1018.6 0.0
25/03:08pm 16.8 9.2 12.3 75 2.5 WNW 44 63 24 34 1019.0 1018.8 0.0
25/03:00pm 17.3 8.4 12.0 71 2.9 W 50 63 27 34 1018.8 1018.6 0.0
25/02:30pm 20.4 11.9 8.7 47 6.1 WNW 43 54 23 29 1018.5 1018.3 0.0
25/02:00pm 20.6 12.7 7.9 44 6.6 WNW 39 50 21 27 1018.9 1018.7 0.0
25/01:30pm 20.8 12.7 8.8 46 6.3 WNW 41 52 22 28 1019.4 1019.2 0.0
25/01:00pm 20.6 12.6 7.6 43 6.7 WNW 39 54 21 29 1019.4 1019.2 0.0
25/12:50pm 20.2 12.7 6.5 41 6.9 WNW 35 50 19 27 1019.6 1019.4 0.0
25/12:33pm 19.7 12.8 8.7 49 5.8 NW 35 54 19 29 1019.8 1019.6 0.0
25/12:30pm 20.3 13.3 8.6 47 6.1 NW 35 46 19 25 1019.9 1019.7 0.0
25/12:00pm 19.6 12.3 7.4 45 6.2 NW 35 48 19 26 1020.1 1019.9 0.0
25/11:41am 19.4 12.6 7.5 46 6.1 WNW 33 52 18 28 1020.3 1020.1 0.0
25/11:30am 19.1 12.8 7.2 46 6.0 WNW 30 39 16 21 1020.3 1020.1 0.0
25/11:00am 17.6 12.0 7.1 50 5.3 NW 26 39 14 21 1020.6 1020.4 0.0
25/10:30am 17.4 12.5 6.9 50 5.2 NNW 22 37 12 20 1020.7 1020.5 0.0
25/10:00am 16.5 11.4 5.8 49 5.2 NNW 22 28 12 15 1020.9 1020.7 0.0
25/09:30am 14.2 9.8 5.0 54 4.3 N 17 20 9 11 1021.0 1020.8 0.0
25/09:00am 13.4 9.8 5.1 57 3.9 N 13 19 7 10 1021.2 1021.1 0.0
25/08:30am 11.9 9.2 5.5 65 3.0 N 9 13 5 7 1021.0 1020.8 0.0
25/08:00am 10.1 7.2 4.7 69 2.4 NNE 9 13 5 7 1020.8 1020.6 0.0
25/07:30am 8.3 5.3 4.3 76 1.7 NNE 9 11 5 6 1020.9 1020.7 0.0
25/07:00am 7.4 6.0 3.5 76 1.7 CALM 0 0 0 0 1020.8 1020.6 0.0
25/06:30am 7.3 5.8 3.2 75 1.7 CALM 0 0 0 0 1020.5 1020.3 0.0
25/06:00am 7.2 5.8 3.3 76 1.6 CALM 0 0 0 0 1020.5 1020.3 0.0
25/05:30am 6.6 5.0 2.7 76 1.6 CALM 0 0 0 0 1020.4 1020.2 0.0
25/05:00am 6.4 4.8 2.3 75 1.7 CALM 0 0 0 0 1020.5 1020.3 0.0
25/04:30am 6.5 3.6 2.4 75 1.7 NNE 7 9 4 5 1020.8 1020.6 0.0
25/04:00am 6.2 3.2 2.3 76 1.6 NE 7 9 4 5 1021.0 1020.8 0.0
25/03:30am 6.0 3.0 1.9 75 1.7 NNE 7 9 4 5 1021.3 1021.2 0.0
25/03:00am 6.5 4.1 2.2 74 1.8 NNE 4 7 2 4 1021.7 1021.6 0.0
25/02:30am 6.7 5.1 2.2 73 1.8 CALM 0 0 0 0 1021.9 1021.8 0.0
25/02:00am 6.9 3.9 2.2 72 1.9 NE 7 7 4 4 1021.8 1021.7 0.0
25/01:30am 7.2 4.5 2.5 72 1.9 ENE 6 7 3 4 1022.1 1022.0 0.0
25/01:00am 8.2 6.7 3.1 70 2.2 CALM 0 0 0 0 1022.6 1022.5 0.0
25/12:30am 9.0 7.5 2.8 65 2.6 CALM 0 0 0 0 1022.4 1022.3 0.0
25/12:00am 9.9 8.5 3.6 65 2.7 CALM 0 0 0 0 1022.6 1022.5 0.0
 
Date/Time
CDT
Temp
°C
App
Temp
°C
Dew
Point
Rel
Hum
%
Delta-T
°C
Wind Press
QNH
hPa
Press
MSL
hPa
Rain
since 9 am
mm
Dir
 
Spd
km/h
Gust
km/h
Spd
kts
Gust
kts
24/11:30pm 9.8 7.7 3.8 66 2.6 SSW 4 7 2 4 1022.6 1022.5 0.0
24/11:00pm 10.6 9.3 4.1 64 2.9 CALM 0 0 0 0 1022.9 1022.8 0.0
24/10:30pm 10.5 7.9 4.0 64 2.9 SSE 7 11 4 6 1023.0 1022.9 0.0
24/10:00pm 11.6 8.3 4.6 62 3.2 SSW 11 13 6 7 1023.0 1022.9 0.0
24/09:30pm 13.2 10.0 5.1 58 3.8 SSE 11 13 6 7 1023.1 1023.0 0.0
24/09:00pm 13.9 10.7 5.0 55 4.1 SE 11 13 6 7 1022.8 1022.7 0.0
24/08:30pm 15.5 11.2 5.4 51 4.8 SE 17 20 9 11 1022.8 1022.7 0.0
24/08:00pm 16.1 11.8 5.4 49 5.1 SE 17 26 9 14 1022.6 1022.5 0.0
24/07:30pm 16.4 12.3 6.0 50 5.0 SSE 17 24 9 13 1022.5 1022.4 0.0
24/07:00pm 16.5 11.8 6.1 50 5.1 SSE 20 28 11 15 1021.8 1021.7 0.0
24/06:30pm 17.2 13.1 6.1 48 5.4 SSE 17 22 9 12 1021.9 1021.8 0.0
24/06:00pm 17.6 13.0 6.5 48 5.5 SE 20 26 11 14 1021.9 1021.8 0.0
24/05:30pm 18.1 13.4 6.0 45 5.9 SSE 20 28 11 15 1021.7 1021.6 0.0
24/05:00pm 18.7 14.0 5.9 43 6.3 SSE 20 30 11 16 1021.6 1021.5 0.0
24/04:30pm 19.2 14.4 4.9 39 6.9 SSE 19 26 10 14 1021.6 1021.5 0.0
24/04:00pm 18.9 14.2 3.1 35 7.4 SSE 17 30 9 16 1021.7 1021.6 0.0
24/03:30pm 18.7 14.3 4.5 39 6.8 SSE 17 28 9 15 1022.0 1021.9 0.0
24/03:00pm 19.2 14.7 4.2 37 7.1 SE 17 26 9 14 1022.2 1022.1 0.0
24/02:30pm 19.0 13.9 5.8 42 6.5 SE 22 30 12 16 1022.5 1022.4 0.0
24/02:00pm 18.2 13.9 5.4 43 6.2 SSE 17 30 9 16 1022.8 1022.7 0.0
24/01:30pm 17.9 13.0 5.2 43 6.1 SSE 20 28 11 15 1023.3 1023.2 0.0
24/01:00pm 18.2 13.5 5.1 42 6.3 SSE 19 28 10 15 1023.6 1023.5 0.0
24/12:30pm 18.2 12.2 5.1 42 6.3 S 26 33 14 18 1023.9 1023.8 0.0
24/12:00pm 18.0 12.8 3.5 38 6.7 S 20 33 11 18 1024.1 1024.0 0.0
24/11:30am 17.3 12.5 2.5 37 6.7 S 17 26 9 14 1024.4 1024.3 0.0
24/11:00am 17.0 13.6 1.8 36 6.8 S 9 20 5 11 1024.5 1024.4 0.0
24/10:30am 16.6 12.5 2.2 38 6.4 S 13 20 7 11 1024.5 1024.4 0.0

Other Formats:

Comma delimited format used in spreadsheet applications
http://www.bom.gov.au/fwo/IDS60801/IDS60801.95663.axf

JavaScript Object Notation format (JSON) in row-major order
http://www.bom.gov.au/fwo/IDS60801/IDS60801.95663.json